Time;durP1;ratioP1;P1;durP2;ratioP2;P2;SDS_P1;SDS_P2;PMS_P1;PMS_P2;Temp;Humidity;BMP_temperature;BMP_pressure;BME280_temperature;BME280_humidity;BME280_pressure;Samples;Min_cycle;Max_cycle;Signal;HPM_P1;HPM_P2
2022/06/03 00:05:12;;;;;;;7.90;2.90;;;23.20;51.80;;;;;;220811;1264;24212;-63
2022/06/03 00:10:39;;;;;;;4.80;2.80;;;23.30;56.20;;;;;;220713;1264;24195;-63
2022/06/03 00:16:20;;;;;;;6.90;3.00;;;23.30;56.50;;;;;;220967;1265;25405;-64
2022/06/03 00:21:50;;;;;;;4.40;2.50;;;23.30;56.00;;;;;;220775;1265;22645;-67
2022/06/03 00:27:09;;;;;;;5.10;2.40;;;23.30;55.10;;;;;;220913;1265;24287;-66
2022/06/03 00:32:43;;;;;;;3.70;2.30;;;23.20;56.10;;;;;;220727;1267;24601;-60
2022/06/03 00:38:34;;;;;;;7.90;2.80;;;23.20;55.50;;;;;;221023;1265;25492;-64
2022/06/03 00:43:53;;;;;;;4.30;2.50;;;23.20;56.40;;;;;;220709;1267;24259;-62
2022/06/03 00:49:13;;;;;;;8.20;2.40;;;23.20;55.90;;;;;;220865;1264;25707;-64
2022/06/03 00:54:45;;;;;;;5.00;2.10;;;23.20;56.00;;;;;;220997;1265;22563;-64
2022/06/03 01:00:07;;;;;;;4.60;2.50;;;23.20;55.50;;;;;;221043;1265;24303;-64
2022/06/03 01:05:27;;;;;;;3.80;2.30;;;23.20;56.00;;;;;;220829;1265;24211;-66
2022/06/03 01:11:09;;;;;;;4.30;2.60;;;23.20;55.90;;;;;;220954;1267;22887;-62
2022/06/03 01:16:12;;;;;;;3.60;2.30;;;23.10;55.50;;;;;;220528;1267;24305;-68
2022/06/03 01:21:31;;;;;;;3.90;2.10;;;23.20;55.90;;;;;;220901;1267;24224;-64
2022/06/03 01:27:10;;;;;;;5.50;2.50;;;23.10;55.90;;;;;;220923;1265;24239;-67
2022/06/03 01:32:38;;;;;;;3.40;2.10;;;23.10;56.30;;;;;;220256;1267;24234;-61
2022/06/03 01:37:59;;;;;;;3.80;2.40;;;23.10;56.00;;;;;;226677;1265;24225;-61
2022/06/03 01:43:09;;;;;;;5.20;2.50;;;23.10;55.70;;;;;;221455;1265;25459;-62
2022/06/03 01:48:33;;;;;;;4.50;2.60;;;23.10;56.20;;;;;;222513;1265;22618;-66
2022/06/03 01:53:49;;;;;;;3.90;2.00;;;23.10;55.90;;;;;;220516;1267;24214;-64
2022/06/03 01:59:14;;;;;;;4.10;2.50;;;23.10;56.00;;;;;;221149;1265;24331;-69
2022/06/03 02:04:27;;;;;;;3.70;2.10;;;23.10;55.70;;;;;;220790;1264;22601;-64
2022/06/03 02:09:40;;;;;;;3.70;2.10;;;23.00;55.70;;;;;;221001;1267;22558;-65
2022/06/03 02:15:08;;;;;;;3.50;2.00;;;23.00;55.60;;;;;;220893;1265;22536;-64
2022/06/03 02:20:36;;;;;;;3.30;2.10;;;23.00;55.60;;;;;;220871;1265;22650;-67
2022/06/03 02:25:55;;;;;;;4.80;1.90;;;23.00;55.60;;;;;;220806;1265;22547;-64
2022/06/03 02:31:11;;;;;;;2.70;1.80;;;23.00;55.50;;;;;;220728;1265;22566;-58
2022/06/03 02:36:34;;;;;;;3.50;2.30;;;23.00;55.60;;;;;;220809;1265;25287;-64
2022/06/03 02:41:48;;;;;;;3.60;2.20;;;23.00;55.50;;;;;;220555;1267;22564;-63
2022/06/03 02:47:31;;;;;;;4.00;2.10;;;23.00;55.70;;;;;;220836;1265;23180;-67
2022/06/03 02:53:13;;;;;;;5.50;2.10;;;22.90;55.60;;;;;;220874;1265;25344;-63
2022/06/03 02:58:55;;;;;;;3.60;2.00;;;22.90;55.60;;;;;;220753;1265;22720;-63
2022/06/03 03:04:17;;;;;;;4.00;2.30;;;22.90;55.60;;;;;;221019;1265;22541;-63
2022/06/03 03:09:32;;;;;;;2.90;1.90;;;22.90;55.70;;;;;;220887;1268;24292;-66
2022/06/03 03:14:42;;;;;;;4.40;1.90;;;22.90;55.60;;;;;;220708;1267;25487;-67
2022/06/03 03:19:52;;;;;;;3.20;1.90;;;22.90;55.50;;;;;;221220;1266;25307;-60
2022/06/03 03:25:02;;;;;;;3.70;2.00;;;22.80;55.90;;;;;;221140;1266;22621;-68
2022/06/03 03:30:24;;;;;;;4.20;2.00;;;22.90;55.60;;;;;;220824;1267;25364;-63
2022/06/03 03:35:57;;;;;;;3.60;2.10;;;22.80;55.90;;;;;;221201;1265;25267;-64
2022/06/03 03:41:20;;;;;;;3.60;2.00;;;22.80;55.60;;;;;;220740;1267;25642;-63
2022/06/03 03:47:15;;;;;;;3.80;2.10;;;22.80;55.60;;;;;;221130;1267;24451;-65
2022/06/03 03:52:56;;;;;;;3.30;2.30;;;22.80;55.60;;;;;;220998;1268;24139;-63
2022/06/03 03:58:30;;;;;;;5.30;2.10;;;22.80;55.60;;;;;;220956;1267;25634;-66
2022/06/03 04:04:11;;;;;;;3.40;2.10;;;22.80;55.60;;;;;;220827;1265;24383;-63
2022/06/03 04:09:40;;;;;;;4.70;2.40;;;22.80;55.70;;;;;;220742;1265;22597;-67
2022/06/03 04:15:26;;;;;;;3.10;2.10;;;22.80;55.70;;;;;;220952;1265;22713;-68
2022/06/03 04:20:39;;;;;;;3.20;1.90;;;22.80;55.70;;;;;;220510;1267;22737;-64
2022/06/03 04:25:52;;;;;;;2.90;1.80;;;22.80;55.80;;;;;;220742;1267;24260;-64
2022/06/03 04:31:11;;;;;;;3.60;2.10;;;22.80;55.70;;;;;;220793;1267;22675;-63
2022/06/03 04:36:22;;;;;;;3.50;2.10;;;22.80;55.70;;;;;;220731;1265;25463;-63
2022/06/03 04:41:55;;;;;;;2.80;1.90;;;22.80;56.20;;;;;;221112;1265;25674;-65
2022/06/03 04:47:26;;;;;;;3.90;2.20;;;22.80;55.70;;;;;;220970;1265;24257;-65
2022/06/03 04:52:45;;;;;;;3.30;2.00;;;22.80;55.70;;;;;;221160;1265;22685;-66
2022/06/03 04:58:24;;;;;;;3.10;2.10;;;22.80;55.60;;;;;;221312;1265;24309;-63
2022/06/03 05:03:51;;;;;;;3.20;1.60;;;22.80;55.60;;;;;;221359;1265;22531;-65
2022/06/03 05:09:16;;;;;;;3.70;2.00;;;22.80;55.60;;;;;;221175;1265;22576;-65
2022/06/03 05:15:11;;;;;;;3.10;2.20;;;22.80;55.70;;;;;;221049;1265;24204;-65
2022/06/03 05:20:45;;;;;;;4.20;2.30;;;22.80;55.90;;;;;;221273;1265;25366;-69
2022/06/03 05:26:08;;;;;;;3.90;2.20;;;22.80;55.60;;;;;;221338;1265;24363;-66
2022/06/03 05:31:43;;;;;;;5.90;1.90;;;22.80;55.60;;;;;;221156;1265;24306;-66
2022/06/03 05:37:24;;;;;;;4.30;2.30;;;22.80;55.50;;;;;;221238;1264;22674;-68
2022/06/03 05:42:34;;;;;;;3.40;1.70;;;22.80;55.90;;;;;;220848;1267;22682;-67
2022/06/03 05:47:48;;;;;;;9.40;1.90;;;22.80;55.70;;;;;;220613;1267;24350;-63
2022/06/03 05:53:15;;;;;;;19.50;2.50;;;22.90;56.00;;;;;;220927;1268;24352;-64
2022/06/03 05:58:54;;;;;;;5.40;2.20;;;22.90;56.70;;;;;;221013;1265;22852;-66
2022/06/03 06:04:15;;;;;;;5.60;1.90;;;22.90;56.50;;;;;;221077;1265;25651;-63
2022/06/03 06:09:40;;;;;;;6.50;2.10;;;22.90;56.30;;;;;;221248;1265;23179;-64
2022/06/03 06:15:06;;;;;;;6.00;2.00;;;23.00;56.60;;;;;;221052;1265;24190;-63
2022/06/03 06:20:35;;;;;;;12.40;2.30;;;23.10;57.00;;;;;;220683;1268;22551;-64
2022/06/03 06:25:44;;;;;;;9.60;2.80;;;23.10;57.10;;;;;;220642;1267;23142;-63
2022/06/03 06:31:14;;;;;;;5.10;2.50;;;23.20;57.30;;;;;;221303;1265;24314;-63
2022/06/03 06:36:52;;;;;;;14.10;2.50;;;23.20;57.30;;;;;;221120;1265;25748;-61
2022/06/03 06:42:19;;;;;;;9.30;2.50;;;23.20;57.70;;;;;;221091;1265;22544;-65
2022/06/03 06:47:35;;;;;;;11.20;2.40;;;23.20;57.00;;;;;;221388;1265;22657;-65
2022/06/03 06:53:07;;;;;;;10.70;2.20;;;23.20;57.00;;;;;;220821;1265;468794;-63
2022/06/03 06:58:50;;;;;;;9.00;2.10;;;23.20;57.10;;;;;;220746;1264;25518;-69
2022/06/03 07:04:03;;;;;;;9.00;2.80;;;23.20;57.10;;;;;;222297;1267;25541;-62
2022/06/03 07:09:10;;;;;;;7.10;2.30;;;23.20;56.70;;;;;;224110;1265;25231;-63
2022/06/03 07:14:20;;;;;;;10.80;2.90;;;23.20;56.30;;;;;;221050;1265;24292;-69
2022/06/03 07:19:47;;;;;;;5.70;2.00;;;23.20;56.20;;;;;;221251;1265;24208;-69
2022/06/03 07:25:26;;;;;;;4.00;1.90;;;23.20;56.10;;;;;;221126;1265;22636;-62
2022/06/03 07:30:38;;;;;;;5.00;1.80;;;23.20;55.90;;;;;;221047;1265;22703;-66
2022/06/03 07:35:51;;;;;;;5.90;1.80;;;23.20;55.80;;;;;;221339;1265;22558;-67
2022/06/03 07:41:21;;;;;;;5.20;2.20;;;23.20;55.70;;;;;;221323;1265;22606;-65
2022/06/03 07:46:43;;;;;;;4.50;2.20;;;23.20;56.00;;;;;;220682;1265;24216;-66
2022/06/03 07:51:53;;;;;;;6.00;1.90;;;23.20;55.50;;;;;;221399;1265;24270;-64
2022/06/03 07:57:10;;;;;;;4.20;1.90;;;23.20;55.50;;;;;;221154;1265;25393;-65
2022/06/03 08:02:21;;;;;;;3.50;1.90;;;23.30;55.80;;;;;;220999;1265;24259;-66
2022/06/03 08:12:59;;;;;;;4.50;2.30;;;23.30;55.70;;;;;;220568;1268;25399;-61
2022/06/03 08:18:05;;;;;;;4.60;2.40;;;23.30;55.80;;;;;;220824;1267;24299;-62
2022/06/03 08:23:12;;;;;;;4.60;2.00;;;23.40;55.50;;;;;;221038;1264;22850;-66
2022/06/03 08:28:21;;;;;;;3.30;1.90;;;23.40;55.70;;;;;;221032;1265;22541;-60
2022/06/03 08:33:42;;;;;;;3.40;1.80;;;23.50;55.30;;;;;;221192;1265;22557;-68
2022/06/03 08:38:52;;;;;;;8.10;2.40;;;23.50;55.30;;;;;;220987;1265;22608;-62
2022/06/03 08:44:18;;;;;;;4.70;1.80;;;23.50;55.30;;;;;;223934;1265;24412;-60
2022/06/03 08:49:54;;;;;;;4.40;1.90;;;23.50;55.10;;;;;;221113;1265;27635;-63
2022/06/03 08:55:09;;;;;;;5.80;1.90;;;23.50;55.30;;;;;;221449;1265;25384;-63
2022/06/03 09:00:44;;;;;;;6.20;2.00;;;23.60;55.40;;;;;;221190;1265;24289;-65
2022/06/03 09:06:11;;;;;;;6.60;2.10;;;23.60;55.00;;;;;;221159;1265;22541;-63
2022/06/03 09:11:51;;;;;;;5.30;1.80;;;23.60;54.90;;;;;;221006;1265;22516;-67
2022/06/03 09:17:02;;;;;;;3.90;1.90;;;23.60;54.90;;;;;;221206;1265;24297;-59
2022/06/03 09:22:27;;;;;;;6.90;2.00;;;23.60;54.80;;;;;;220880;1265;22709;-65
2022/06/03 09:27:39;;;;;;;6.40;2.00;;;23.60;54.60;;;;;;220607;1268;26163;-61
2022/06/03 09:32:48;;;;;;;4.50;1.80;;;23.70;54.50;;;;;;221216;1265;22992;-64
2022/06/03 09:37:58;;;;;;;6.10;1.90;;;23.70;55.20;;;;;;221232;1265;24408;-68
2022/06/03 09:43:16;;;;;;;4.40;1.90;;;23.70;55.60;;;;;;221200;1265;25551;-64
2022/06/03 09:48:26;;;;;;;4.20;2.00;;;23.70;55.50;;;;;;221120;1265;22522;-62
2022/06/03 09:53:36;;;;;;;2.70;1.60;;;23.70;55.40;;;;;;220785;1267;22769;-66
2022/06/03 09:59:02;;;;;;;9.30;2.50;;;23.80;55.20;;;;;;220926;1265;22543;-61
2022/06/03 10:04:24;;;;;;;6.80;2.20;;;23.80;55.00;;;;;;220788;1266;24350;-65
2022/06/03 10:20:30;;;;;;;5.20;2.10;;;23.90;55.10;;;;;;220998;1265;24371;-67
2022/06/03 10:25:40;;;;;;;4.20;2.10;;;23.90;54.60;;;;;;221035;1265;25311;-62
2022/06/03 10:30:58;;;;;;;9.30;1.90;;;23.90;54.60;;;;;;220952;1265;22839;-67
2022/06/03 10:36:05;;;;;;;4.10;1.90;;;23.90;54.30;;;;;;221111;1265;25330;-63
2022/06/03 10:41:13;;;;;;;3.50;1.90;;;23.90;54.10;;;;;;220836;1268;22684;-63
2022/06/03 10:46:20;;;;;;;3.70;2.00;;;23.90;54.10;;;;;;220987;1265;25918;-62
2022/06/03 11:02:25;;;;;;;7.00;1.70;;;23.90;53.40;;;;;;221291;1265;22554;-62
2022/06/03 11:07:30;;;;;;;2.90;1.60;;;23.90;53.50;;;;;;220926;1265;24241;-65
2022/06/03 11:12:34;;;;;;;5.20;1.70;;;24.00;53.40;;;;;;221015;1265;22682;-63
2022/06/03 11:17:40;;;;;;;4.40;1.60;;;24.00;53.20;;;;;;220931;1265;24215;-66
2022/06/03 11:22:45;;;;;;;5.80;1.70;;;24.00;53.00;;;;;;221404;1265;22684;-63
2022/06/03 11:28:04;;;;;;;3.20;1.40;;;24.00;53.00;;;;;;220887;1265;22585;-61
2022/06/03 11:33:17;;;;;;;3.10;1.60;;;24.10;52.90;;;;;;221155;1265;22661;-60
2022/06/03 11:38:53;;;;;;;4.10;1.70;;;24.00;52.70;;;;;;220832;1265;22784;-62
2022/06/03 11:44:04;;;;;;;3.00;1.50;;;24.00;52.60;;;;;;221187;1270;22619;-64
2022/06/03 11:49:09;;;;;;;3.20;1.70;;;24.10;52.40;;;;;;220806;1265;22645;-65
2022/06/03 11:54:17;;;;;;;2.70;1.30;;;24.10;52.20;;;;;;220871;1265;25514;-61
2022/06/03 11:59:28;;;;;;;3.10;1.30;;;24.10;52.10;;;;;;220989;1265;24419;-61
2022/06/03 12:05:00;;;;;;;3.30;1.70;;;24.10;52.10;;;;;;220641;1268;24208;-65
2022/06/03 12:10:45;;;;;;;3.20;1.60;;;24.10;52.10;;;;;;220596;1268;23899;-60
2022/06/03 12:16:10;;;;;;;4.10;1.50;;;24.20;51.90;;;;;;220552;1265;22527;-60
2022/06/03 12:21:53;;;;;;;2.60;1.40;;;24.20;51.80;;;;;;220270;1268;22558;-60
2022/06/03 12:27:27;;;;;;;3.40;1.40;;;24.20;51.90;;;;;;220463;1265;24160;-61
2022/06/03 12:33:10;;;;;;;2.20;1.40;;;24.30;51.90;;;;;;220290;1268;22560;-58
2022/06/03 12:38:40;;;;;;;2.40;1.30;;;24.40;51.80;;;;;;220518;1268;23105;-59
2022/06/03 12:44:26;;;;;;;2.30;1.40;;;24.40;51.80;;;;;;220788;1265;22783;-61
2022/06/03 12:49:48;;;;;;;4.80;1.60;;;24.30;51.80;;;;;;220578;1265;22641;-61
2022/06/03 12:55:02;;;;;;;2.20;1.40;;;24.30;51.80;;;;;;220469;1265;23022;-60
2022/06/03 13:00:28;;;;;;;3.00;1.50;;;24.30;51.50;;;;;;220244;1268;26638;-61
2022/06/03 13:06:05;;;;;;;2.50;1.30;;;24.30;51.40;;;;;;220863;1265;22557;-62
2022/06/03 13:11:22;;;;;;;2.60;1.30;;;24.30;51.50;;;;;;220793;1265;24275;-67
2022/06/03 13:16:31;;;;;;;43.30;15.80;;;24.40;51.40;;;;;;220916;1268;24306;-65
2022/06/03 13:22:00;;;;;;;29.90;11.60;;;24.50;52.90;;;;;;220823;1265;24211;-66
2022/06/03 13:27:26;;;;;;;23.70;7.10;;;24.60;55.40;;;;;;220866;1265;22544;-60
2022/06/03 13:32:36;;;;;;;11.50;4.80;;;24.60;55.60;;;;;;220993;1268;24293;-65
2022/06/03 13:37:46;;;;;;;8.20;3.00;;;24.70;50.50;;;;;;220663;1268;22564;-65
2022/06/03 13:43:00;;;;;;;5.30;2.70;;;24.70;45.60;;;;;;221061;1265;24402;-66
2022/06/03 13:48:14;;;;;;;6.40;2.50;;;24.70;44.10;;;;;;221019;1265;24425;-62
2022/06/03 13:53:52;;;;;;;8.80;2.40;;;24.60;43.50;;;;;;221050;1265;22551;-62
2022/06/03 13:59:03;;;;;;;5.30;2.30;;;24.70;42.70;;;;;;220704;1267;22597;-61
2022/06/03 14:04:26;;;;;;;5.90;2.30;;;24.60;43.80;;;;;;221062;1265;22529;-61
2022/06/03 14:09:50;;;;;;;4.00;2.00;;;24.60;43.20;;;;;;220864;1268;23779;-68
2022/06/03 14:15:36;;;;;;;3.50;2.00;;;24.60;43.10;;;;;;220877;1265;24419;-62
2022/06/03 14:20:48;;;;;;;4.10;1.80;;;24.50;43.70;;;;;;220727;1268;22546;-67
2022/06/03 14:25:58;;;;;;;4.20;2.00;;;24.60;42.60;;;;;;221064;1265;22615;-63
2022/06/03 14:31:11;;;;;;;;;;;24.60;42.20;;;;;;220898;1265;22784;-67
2022/06/03 14:36:20;;;;;;;3.70;1.90;;;24.60;42.10;;;;;;221205;1268;25233;-62
2022/06/03 14:41:32;;;;;;;5.00;1.70;;;24.50;42.40;;;;;;221128;1265;22528;-63
2022/06/03 14:46:55;;;;;;;4.50;1.80;;;24.50;42.40;;;;;;221073;1265;24221;-69
2022/06/03 14:52:18;;;;;;;3.50;1.90;;;24.60;42.30;;;;;;220884;1267;23945;-64
2022/06/03 14:57:58;;;;;;;6.00;1.90;;;24.60;42.60;;;;;;220910;1265;22541;-61
2022/06/03 15:03:47;;;;;;;4.50;1.90;;;24.50;42.00;;;;;;220958;1268;22839;-59
2022/06/03 15:09:07;;;;;;;5.90;2.00;;;24.60;43.10;;;;;;220956;1265;24826;-61
2022/06/03 15:14:19;;;;;;;5.00;2.30;;;24.60;42.70;;;;;;220668;1267;24295;-62
2022/06/03 15:19:44;;;;;;;6.60;1.90;;;24.60;42.70;;;;;;220877;1265;22591;-60
2022/06/03 15:25:04;;;;;;;3.70;2.10;;;24.60;42.70;;;;;;220734;1265;24306;-61
2022/06/03 15:30:18;;;;;;;3.30;2.00;;;24.50;42.50;;;;;;220917;1268;22543;-57
2022/06/03 15:35:29;;;;;;;4.40;2.00;;;24.50;43.00;;;;;;220978;1267;22561;-60
2022/06/03 15:40:36;;;;;;;6.30;2.00;;;24.50;43.10;;;;;;220867;1265;22840;-62
2022/06/03 15:45:50;;;;;;;5.30;2.10;;;24.60;43.30;;;;;;220862;1265;22554;-62
2022/06/03 15:51:05;;;;;;;3.50;1.90;;;24.50;43.00;;;;;;221092;1265;24395;-60
2022/06/03 15:56:26;;;;;;;5.40;2.10;;;24.50;43.00;;;;;;220923;1265;22539;-65
2022/06/03 16:02:10;;;;;;;5.90;2.10;;;24.50;43.10;;;;;;221092;1265;24339;-62
2022/06/03 16:07:16;;;;;;;9.80;2.20;;;24.50;43.50;;;;;;221115;1265;24212;-63
2022/06/03 16:12:42;;;;;;;8.10;2.10;;;24.50;43.30;;;;;;220991;1265;24215;-62
2022/06/03 16:18:08;;;;;;;5.90;2.20;;;24.50;43.50;;;;;;220374;1265;22860;-61
2022/06/03 16:23:17;;;;;;;3.70;2.10;;;24.50;43.20;;;;;;220976;1265;22605;-59
2022/06/03 16:28:51;;;;;;;4.20;2.30;;;24.40;43.20;;;;;;220726;1268;24372;-64
2022/06/03 16:34:04;;;;;;;5.20;1.90;;;24.40;43.60;;;;;;220501;1265;22608;-60
2022/06/03 16:39:35;;;;;;;5.20;1.70;;;24.40;43.60;;;;;;220995;1265;22625;-59
2022/06/03 16:44:39;;;;;;;3.10;2.20;;;24.40;43.70;;;;;;221044;1265;25528;-61
2022/06/03 16:50:27;;;;;;;20.50;6.90;;;24.40;44.00;;;;;;221073;1265;24270;-60
2022/06/03 16:55:38;;;;;;;15.90;7.00;;;24.40;43.90;;;;;;220724;1268;22630;-65
2022/06/03 17:01:02;;;;;;;8.30;4.20;;;24.40;44.30;;;;;;221093;1265;23709;-62
2022/06/03 17:06:12;;;;;;;11.70;3.90;;;24.40;44.30;;;;;;221048;1264;24731;-63
2022/06/03 17:11:36;;;;;;;11.40;3.80;;;24.40;45.10;;;;;;221167;1265;22547;-63
2022/06/03 17:16:52;;;;;;;8.50;3.60;;;24.50;45.10;;;;;;221241;1265;23898;-60
2022/06/03 17:22:28;;;;;;;5.40;3.10;;;24.50;45.20;;;;;;221016;1265;26876;-68
2022/06/03 17:28:15;;;;;;;8.10;2.60;;;24.50;45.90;;;;;;221100;1264;22748;-65
2022/06/03 17:33:43;;;;;;;4.80;2.80;;;24.60;46.00;;;;;;221034;1267;22681;-63
2022/06/03 17:39:17;;;;;;;9.00;2.60;;;24.60;46.60;;;;;;221070;1264;24412;-67
2022/06/03 17:44:40;;;;;;;9.90;2.80;;;24.60;46.90;;;;;;221215;1265;24417;-68
2022/06/03 17:50:06;;;;;;;5.70;2.70;;;24.60;46.70;;;;;;221130;1265;22602;-63
2022/06/03 17:56:29;;;;;;;6.80;2.60;;;24.60;46.60;;;;;;221120;1265;23111;-66
2022/06/03 18:02:07;;;;;;;9.20;2.50;;;24.50;47.40;;;;;;221031;1265;25875;-63
2022/06/03 18:08:21;;;;;;;;;;;;;;;;;;;;;
2022/06/03 18:13:56;;;;;;;10.30;2.60;;;24.50;47.40;;;;;;220930;1265;25431;-63
2022/06/03 18:19:21;;;;;;;10.00;2.80;;;24.50;48.00;;;;;;220942;1265;22549;-62
2022/06/03 18:25:12;;;;;;;7.40;2.70;;;24.50;47.50;;;;;;220755;1267;24299;-62
2022/06/03 18:30:40;;;;;;;6.10;2.80;;;24.40;47.50;;;;;;220520;1265;25222;-59
2022/06/03 18:36:24;;;;;;;7.50;2.60;;;24.40;47.10;;;;;;220803;1264;22591;-60
2022/06/03 18:42:01;;;;;;;3.70;2.30;;;24.20;47.00;;;;;;220545;1265;25654;-65
2022/06/03 18:47:40;;;;;;;7.00;2.50;;;24.20;47.40;;;;;;220540;1265;24368;-62
2022/06/03 18:53:15;;;;;;;8.60;2.50;;;24.30;47.20;;;;;;219174;1264;1661438;-65
2022/06/03 18:58:59;;;;;;;7.70;2.50;;;24.20;47.10;;;;;;220910;1265;25320;-64
2022/06/03 19:04:30;;;;;;;5.60;2.50;;;24.10;47.20;;;;;;220425;1265;22555;-63
2022/06/03 19:10:09;;;;;;;5.50;2.50;;;24.20;47.30;;;;;;220815;1265;22544;-66
2022/06/03 19:15:51;;;;;;;5.90;2.50;;;24.20;47.20;;;;;;220649;1265;22541;-65
2022/06/03 19:21:19;;;;;;;9.00;2.90;;;24.10;47.10;;;;;;220815;1264;22604;-63
2022/06/03 19:26:48;;;;;;;6.80;3.10;;;24.10;47.20;;;;;;220607;1265;25413;-64
2022/06/03 19:32:09;;;;;;;6.80;3.30;;;24.00;47.60;;;;;;220425;1265;22748;-64
2022/06/03 19:37:37;;;;;;;6.70;3.50;;;23.90;47.30;;;;;;220170;1267;22818;-65
2022/06/03 19:43:04;;;;;;;9.90;3.30;;;23.90;47.40;;;;;;221129;1265;22733;-63
2022/06/03 19:48:20;;;;;;;6.30;3.00;;;24.00;48.00;;;;;;221031;1265;22556;-68
2022/06/03 19:53:43;;;;;;;7.50;3.10;;;24.00;48.70;;;;;;220720;1264;25522;-67
2022/06/03 19:59:18;;;;;;;11.00;3.30;;;24.10;48.80;;;;;;220580;1267;22656;-66
2022/06/03 20:04:47;;;;;;;8.40;2.70;;;24.10;49.00;;;;;;220472;1265;23968;-64
2022/06/03 20:10:11;;;;;;;9.80;3.00;;;24.20;48.70;;;;;;220521;1265;22805;-58
2022/06/03 20:15:23;;;;;;;10.60;3.10;;;24.20;49.00;;;;;;220783;1265;25499;-64
2022/06/03 20:20:33;;;;;;;9.60;3.30;;;24.10;48.60;;;;;;221318;1265;25301;-62
2022/06/03 20:25:49;;;;;;;6.70;2.90;;;24.20;49.30;;;;;;221064;1264;24402;-64
2022/06/03 20:31:10;;;;;;;15.30;4.20;;;24.30;52.00;;;;;;220803;1267;24218;-63
2022/06/03 20:36:19;;;;;;;6.50;3.40;;;24.30;51.20;;;;;;221096;1265;22694;-66
2022/06/03 20:41:43;;;;;;;5.70;3.00;;;24.20;51.00;;;;;;220813;1267;22532;-62
2022/06/03 20:47:25;;;;;;;7.60;3.80;;;24.20;50.60;;;;;;220686;1265;23971;-63
2022/06/03 20:52:54;;;;;;;6.50;3.30;;;24.20;50.60;;;;;;220887;1265;27708;-64
2022/06/03 20:58:34;;;;;;;7.50;3.30;;;24.10;50.10;;;;;;221008;1267;22547;-64
2022/06/03 21:15:42;;;;;;;7.70;3.10;;;24.10;49.60;;;;;;220966;1265;24442;-63
2022/06/03 21:21:19;;;;;;;6.00;3.50;;;24.10;51.00;;;;;;221072;1265;22590;-61
2022/06/03 21:26:26;;;;;;;6.90;3.60;;;24.20;52.20;;;;;;220841;1265;22743;-60
2022/06/03 21:32:02;;;;;;;8.30;3.50;;;24.20;51.10;;;;;;220708;1265;22563;-64
2022/06/03 21:37:24;;;;;;;5.20;3.50;;;24.10;51.30;;;;;;220810;1265;25715;-63
2022/06/03 21:42:57;;;;;;;4.80;2.90;;;24.20;50.90;;;;;;220955;1265;25556;-61
2022/06/03 21:48:27;;;;;;;5.70;3.20;;;24.20;51.00;;;;;;220839;1265;22547;-60
2022/06/03 21:53:58;;;;;;;6.20;3.40;;;24.20;50.50;;;;;;220556;1267;22575;-66
2022/06/03 21:59:31;;;;;;;6.00;3.80;;;24.20;50.30;;;;;;220775;1265;22612;-65
2022/06/03 22:04:38;;;;;;;5.40;3.20;;;24.20;50.10;;;;;;220532;1267;22707;-63
2022/06/03 22:09:43;;;;;;;7.60;3.90;;;24.20;49.40;;;;;;220956;1267;22525;-63
2022/06/03 22:14:57;;;;;;;5.70;3.40;;;24.30;49.60;;;;;;220704;1267;24302;-63
2022/06/03 22:20:04;;;;;;;;;;;24.20;49.60;;;;;;220900;1264;22665;-63
2022/06/03 22:25:33;;;;;;;5.60;3.70;;;24.30;49.60;;;;;;220520;1265;24273;-65
2022/06/03 22:30:44;;;;;;;9.20;4.00;;;24.30;49.30;;;;;;220650;1265;24303;-65
2022/06/03 22:36:11;;;;;;;6.40;3.80;;;24.30;49.40;;;;;;220601;1267;24370;-63
2022/06/03 22:41:32;;;;;;;6.00;3.50;;;24.30;49.20;;;;;;220999;1265;22585;-61
2022/06/03 22:46:40;;;;;;;9.90;4.40;;;24.30;49.40;;;;;;220660;1265;22548;-64
2022/06/03 22:51:45;;;;;;;8.60;3.90;;;24.30;52.00;;;;;;220911;1265;24205;-66
2022/06/03 22:56:49;;;;;;;6.40;3.90;;;24.30;50.50;;;;;;220768;1267;22679;-63
2022/06/03 23:01:53;;;;;;;8.20;3.60;;;24.30;51.50;;;;;;221109;1265;25285;-64
2022/06/03 23:06:57;;;;;;;5.90;3.30;;;24.30;51.50;;;;;;221132;1268;22526;-65
2022/06/03 23:12:01;;;;;;;6.90;3.80;;;24.30;51.70;;;;;;221128;1265;23938;-60
2022/06/03 23:17:06;;;;;;;5.90;3.90;;;24.30;52.30;;;;;;221259;1265;23038;-64
2022/06/03 23:22:09;;;;;;;5.00;3.30;;;24.30;52.10;;;;;;220991;1265;24276;-64
2022/06/03 23:27:14;;;;;;;6.40;3.70;;;24.30;52.20;;;;;;221046;1265;25553;-64
2022/06/03 23:32:17;;;;;;;5.10;3.40;;;24.30;52.30;;;;;;220812;1265;22858;-64
2022/06/03 23:37:21;;;;;;;5.70;3.30;;;24.20;52.50;;;;;;221169;1265;22629;-64
2022/06/03 23:47:47;;;;;;;7.40;3.50;;;24.20;52.40;;;;;;220444;1266;25241;-62
2022/06/03 23:52:55;;;;;;;4.30;3.20;;;24.20;52.50;;;;;;220505;1267;24289;-65
2022/06/03 23:57:59;;;;;;;5.40;3.30;;;24.20;52.60;;;;;;220552;1267;25463;-63
